sensor_id;sensor_type;location;lat;lon;timestamp;P1;durP1;ratioP1;P2;durP2;ratioP2
69417;SDS011;56610;48.872;2.400;2023-06-05T00:00:52;3.67;;;1.60;;
69417;SDS011;56610;48.872;2.400;2023-06-05T00:03:18;2.95;;;1.80;;
69417;SDS011;56610;48.872;2.400;2023-06-05T00:05:44;4.32;;;1.55;;
69417;SDS011;56610;48.872;2.400;2023-06-05T00:08:10;5.07;;;1.60;;
69417;SDS011;56610;48.872;2.400;2023-06-05T00:10:35;3.08;;;1.70;;
69417;SDS011;56610;48.872;2.400;2023-06-05T00:13:01;4.78;;;1.80;;
69417;SDS011;56610;48.872;2.400;2023-06-05T00:15:27;3.08;;;1.58;;
69417;SDS011;56610;48.872;2.400;2023-06-05T00:17:52;4.68;;;1.83;;
69417;SDS011;56610;48.872;2.400;2023-06-05T00:20:20;4.80;;;1.85;;
69417;SDS011;56610;48.872;2.400;2023-06-05T00:22:45;3.28;;;1.73;;
69417;SDS011;56610;48.872;2.400;2023-06-05T00:25:12;5.40;;;1.85;;
69417;SDS011;56610;48.872;2.400;2023-06-05T00:27:37;4.15;;;1.95;;
69417;SDS011;56610;48.872;2.400;2023-06-05T00:32:34;3.42;;;1.73;;
69417;SDS011;56610;48.872;2.400;2023-06-05T00:35:00;4.70;;;1.70;;
69417;SDS011;56610;48.872;2.400;2023-06-05T00:37:27;4.07;;;1.90;;
69417;SDS011;56610;48.872;2.400;2023-06-05T00:39:52;3.33;;;2.13;;
69417;SDS011;56610;48.872;2.400;2023-06-05T00:42:18;5.25;;;1.92;;
69417;SDS011;56610;48.872;2.400;2023-06-05T00:44:43;3.10;;;1.88;;
69417;SDS011;56610;48.872;2.400;2023-06-05T00:47:09;4.78;;;1.73;;
69417;SDS011;56610;48.872;2.400;2023-06-05T00:49:35;3.67;;;2.03;;
69417;SDS011;56610;48.872;2.400;2023-06-05T00:52:01;3.08;;;1.80;;
69417;SDS011;56610;48.872;2.400;2023-06-05T00:54:27;2.90;;;1.60;;
69417;SDS011;56610;48.872;2.400;2023-06-05T00:56:53;4.57;;;1.92;;
69417;SDS011;56610;48.872;2.400;2023-06-05T00:59:19;2.83;;;1.70;;
69417;SDS011;56610;48.872;2.400;2023-06-05T01:01:45;3.63;;;1.70;;
69417;SDS011;56610;48.872;2.400;2023-06-05T01:04:12;3.47;;;1.83;;
69417;SDS011;56610;48.872;2.400;2023-06-05T01:06:38;4.05;;;2.00;;
69417;SDS011;56610;48.872;2.400;2023-06-05T01:09:05;4.97;;;1.90;;
69417;SDS011;56610;48.872;2.400;2023-06-05T01:16:52;3.17;;;1.70;;
69417;SDS011;56610;48.872;2.400;2023-06-05T01:19:19;3.35;;;2.20;;
69417;SDS011;56610;48.872;2.400;2023-06-05T01:21:46;5.05;;;2.10;;
69417;SDS011;56610;48.872;2.400;2023-06-05T01:24:12;4.38;;;2.10;;
69417;SDS011;56610;48.872;2.400;2023-06-05T01:26:43;3.65;;;2.00;;
69417;SDS011;56610;48.872;2.400;2023-06-05T01:29:20;4.32;;;1.83;;
69417;SDS011;56610;48.872;2.400;2023-06-05T01:31:51;4.43;;;1.88;;
69417;SDS011;56610;48.872;2.400;2023-06-05T01:34:21;6.03;;;2.20;;
69417;SDS011;56610;48.872;2.400;2023-06-05T01:36:49;5.90;;;2.10;;
69417;SDS011;56610;48.872;2.400;2023-06-05T01:39:16;3.63;;;2.08;;
69417;SDS011;56610;48.872;2.400;2023-06-05T01:41:43;6.00;;;2.08;;
69417;SDS011;56610;48.872;2.400;2023-06-05T01:44:09;4.32;;;1.85;;
69417;SDS011;56610;48.872;2.400;2023-06-05T01:46:39;4.97;;;2.10;;
69417;SDS011;56610;48.872;2.400;2023-06-05T01:49:05;2.78;;;2.08;;
69417;SDS011;56610;48.872;2.400;2023-06-05T01:51:31;3.75;;;2.30;;
69417;SDS011;56610;48.872;2.400;2023-06-05T01:53:56;3.45;;;2.00;;
69417;SDS011;56610;48.872;2.400;2023-06-05T01:56:22;5.97;;;2.25;;
69417;SDS011;56610;48.872;2.400;2023-06-05T01:58:49;4.85;;;2.10;;
69417;SDS011;56610;48.872;2.400;2023-06-05T02:01:14;4.45;;;2.28;;
69417;SDS011;56610;48.872;2.400;2023-06-05T02:03:41;3.75;;;2.33;;
69417;SDS011;56610;48.872;2.400;2023-06-05T02:06:12;4.35;;;2.38;;
69417;SDS011;56610;48.872;2.400;2023-06-05T02:08:41;5.00;;;2.03;;
69417;SDS011;56610;48.872;2.400;2023-06-05T02:11:07;4.53;;;2.33;;
69417;SDS011;56610;48.872;2.400;2023-06-05T02:13:36;4.15;;;2.42;;
69417;SDS011;56610;48.872;2.400;2023-06-05T02:16:05;7.30;;;1.98;;
69417;SDS011;56610;48.872;2.400;2023-06-05T02:18:35;6.60;;;2.25;;
69417;SDS011;56610;48.872;2.400;2023-06-05T02:21:02;5.55;;;2.30;;
69417;SDS011;56610;48.872;2.400;2023-06-05T02:23:29;3.40;;;2.50;;
69417;SDS011;56610;48.872;2.400;2023-06-05T02:25:54;3.92;;;2.33;;
69417;SDS011;56610;48.872;2.400;2023-06-05T02:28:20;4.95;;;2.60;;
69417;SDS011;56610;48.872;2.400;2023-06-05T02:30:46;4.30;;;2.22;;
69417;SDS011;56610;48.872;2.400;2023-06-05T02:33:13;5.70;;;2.13;;
69417;SDS011;56610;48.872;2.400;2023-06-05T02:35:39;4.22;;;2.65;;
69417;SDS011;56610;48.872;2.400;2023-06-05T02:38:08;4.63;;;2.58;;
69417;SDS011;56610;48.872;2.400;2023-06-05T02:40:37;4.55;;;2.13;;
69417;SDS011;56610;48.872;2.400;2023-06-05T02:43:03;5.00;;;2.83;;
69417;SDS011;56610;48.872;2.400;2023-06-05T02:45:30;4.63;;;2.40;;
69417;SDS011;56610;48.872;2.400;2023-06-05T02:47:58;4.10;;;2.30;;
69417;SDS011;56610;48.872;2.400;2023-06-05T02:50:24;5.43;;;2.78;;
69417;SDS011;56610;48.872;2.400;2023-06-05T02:52:49;4.57;;;2.60;;
69417;SDS011;56610;48.872;2.400;2023-06-05T02:55:15;6.03;;;2.60;;
69417;SDS011;56610;48.872;2.400;2023-06-05T02:57:42;5.40;;;2.47;;
69417;SDS011;56610;48.872;2.400;2023-06-05T03:00:08;4.50;;;2.38;;
69417;SDS011;56610;48.872;2.400;2023-06-05T03:02:39;6.35;;;2.97;;
69417;SDS011;56610;48.872;2.400;2023-06-05T03:05:05;4.80;;;2.80;;
69417;SDS011;56610;48.872;2.400;2023-06-05T03:07:31;5.45;;;2.88;;
69417;SDS011;56610;48.872;2.400;2023-06-05T03:09:58;7.43;;;3.08;;
69417;SDS011;56610;48.872;2.400;2023-06-05T03:12:25;6.18;;;2.80;;
69417;SDS011;56610;48.872;2.400;2023-06-05T03:14:50;4.47;;;2.90;;
69417;SDS011;56610;48.872;2.400;2023-06-05T03:17:16;4.80;;;2.80;;
69417;SDS011;56610;48.872;2.400;2023-06-05T03:19:41;4.05;;;2.45;;
69417;SDS011;56610;48.872;2.400;2023-06-05T03:22:07;5.10;;;2.67;;
69417;SDS011;56610;48.872;2.400;2023-06-05T03:24:33;8.35;;;3.08;;
69417;SDS011;56610;48.872;2.400;2023-06-05T03:27:02;5.90;;;2.92;;
69417;SDS011;56610;48.872;2.400;2023-06-05T03:29:29;4.72;;;2.75;;
69417;SDS011;56610;48.872;2.400;2023-06-05T03:31:55;5.40;;;2.75;;
69417;SDS011;56610;48.872;2.400;2023-06-05T03:34:20;5.97;;;3.03;;
69417;SDS011;56610;48.872;2.400;2023-06-05T03:36:47;6.03;;;2.43;;
69417;SDS011;56610;48.872;2.400;2023-06-05T03:39:13;4.95;;;3.17;;
69417;SDS011;56610;48.872;2.400;2023-06-05T03:41:39;5.07;;;3.10;;
69417;SDS011;56610;48.872;2.400;2023-06-05T03:44:04;5.90;;;2.80;;
69417;SDS011;56610;48.872;2.400;2023-06-05T03:46:32;4.13;;;2.67;;
69417;SDS011;56610;48.872;2.400;2023-06-05T03:48:58;5.15;;;2.97;;
69417;SDS011;56610;48.872;2.400;2023-06-05T03:51:27;5.10;;;3.00;;
69417;SDS011;56610;48.872;2.400;2023-06-05T03:53:55;6.85;;;3.20;;
69417;SDS011;56610;48.872;2.400;2023-06-05T03:56:23;5.88;;;3.25;;
69417;SDS011;56610;48.872;2.400;2023-06-05T03:58:59;8.32;;;3.20;;
69417;SDS011;56610;48.872;2.400;2023-06-05T04:01:34;6.78;;;3.35;;
69417;SDS011;56610;48.872;2.400;2023-06-05T04:04:02;6.18;;;3.20;;
69417;SDS011;56610;48.872;2.400;2023-06-05T04:06:30;6.60;;;3.80;;
69417;SDS011;56610;48.872;2.400;2023-06-05T04:08:57;8.52;;;3.53;;
69417;SDS011;56610;48.872;2.400;2023-06-05T04:11:23;6.47;;;3.55;;
69417;SDS011;56610;48.872;2.400;2023-06-05T04:16:20;6.53;;;3.70;;
69417;SDS011;56610;48.872;2.400;2023-06-05T04:18:45;7.15;;;3.42;;
69417;SDS011;56610;48.872;2.400;2023-06-05T04:21:11;5.50;;;3.47;;
69417;SDS011;56610;48.872;2.400;2023-06-05T04:23:37;7.20;;;3.55;;
69417;SDS011;56610;48.872;2.400;2023-06-05T04:26:02;7.10;;;3.72;;
69417;SDS011;56610;48.872;2.400;2023-06-05T04:28:28;5.85;;;3.90;;
69417;SDS011;56610;48.872;2.400;2023-06-05T04:30:54;5.07;;;3.67;;
69417;SDS011;56610;48.872;2.400;2023-06-05T04:33:20;7.95;;;3.97;;
69417;SDS011;56610;48.872;2.400;2023-06-05T04:35:46;7.38;;;4.07;;
69417;SDS011;56610;48.872;2.400;2023-06-05T04:38:12;6.53;;;3.95;;
69417;SDS011;56610;48.872;2.400;2023-06-05T04:40:37;6.80;;;4.18;;
69417;SDS011;56610;48.872;2.400;2023-06-05T04:43:03;6.22;;;3.80;;
69417;SDS011;56610;48.872;2.400;2023-06-05T04:45:29;7.03;;;4.18;;
69417;SDS011;56610;48.872;2.400;2023-06-05T04:47:54;7.28;;;4.50;;
69417;SDS011;56610;48.872;2.400;2023-06-05T04:50:23;8.98;;;3.95;;
69417;SDS011;56610;48.872;2.400;2023-06-05T04:52:53;9.13;;;4.75;;
69417;SDS011;56610;48.872;2.400;2023-06-05T04:55:19;6.78;;;3.97;;
69417;SDS011;56610;48.872;2.400;2023-06-05T04:57:45;9.90;;;4.90;;
69417;SDS011;56610;48.872;2.400;2023-06-05T05:00:13;6.50;;;4.57;;
69417;SDS011;56610;48.872;2.400;2023-06-05T05:02:42;7.65;;;4.55;;
69417;SDS011;56610;48.872;2.400;2023-06-05T05:05:07;6.78;;;4.35;;
69417;SDS011;56610;48.872;2.400;2023-06-05T05:07:33;5.63;;;4.45;;
69417;SDS011;56610;48.872;2.400;2023-06-05T05:10:00;6.72;;;4.07;;
69417;SDS011;56610;48.872;2.400;2023-06-05T05:12:26;8.57;;;4.90;;
69417;SDS011;56610;48.872;2.400;2023-06-05T05:14:51;6.30;;;4.38;;
69417;SDS011;56610;48.872;2.400;2023-06-05T05:17:17;8.48;;;4.88;;
69417;SDS011;56610;48.872;2.400;2023-06-05T05:19:44;5.65;;;3.92;;
69417;SDS011;56610;48.872;2.400;2023-06-05T05:22:10;7.07;;;4.57;;
69417;SDS011;56610;48.872;2.400;2023-06-05T05:24:36;7.88;;;4.72;;
69417;SDS011;56610;48.872;2.400;2023-06-05T05:27:01;7.75;;;5.00;;
69417;SDS011;56610;48.872;2.400;2023-06-05T05:29:27;7.50;;;4.82;;
69417;SDS011;56610;48.872;2.400;2023-06-05T05:31:54;6.95;;;4.95;;
69417;SDS011;56610;48.872;2.400;2023-06-05T05:34:20;8.07;;;4.65;;
69417;SDS011;56610;48.872;2.400;2023-06-05T05:36:46;7.38;;;5.20;;
69417;SDS011;56610;48.872;2.400;2023-06-05T05:39:11;5.45;;;4.05;;
69417;SDS011;56610;48.872;2.400;2023-06-05T05:41:37;6.88;;;4.63;;
69417;SDS011;56610;48.872;2.400;2023-06-05T05:44:02;5.63;;;4.30;;
69417;SDS011;56610;48.872;2.400;2023-06-05T05:46:28;9.02;;;4.78;;
69417;SDS011;56610;48.872;2.400;2023-06-05T05:48:54;8.30;;;4.60;;
69417;SDS011;56610;48.872;2.400;2023-06-05T05:51:20;7.20;;;5.00;;
69417;SDS011;56610;48.872;2.400;2023-06-05T05:53:46;7.78;;;5.22;;
69417;SDS011;56610;48.872;2.400;2023-06-05T05:56:11;9.13;;;5.05;;
69417;SDS011;56610;48.872;2.400;2023-06-05T05:58:37;6.03;;;4.63;;
69417;SDS011;56610;48.872;2.400;2023-06-05T06:01:03;7.38;;;4.60;;
69417;SDS011;56610;48.872;2.400;2023-06-05T06:03:28;6.50;;;5.07;;
69417;SDS011;56610;48.872;2.400;2023-06-05T06:05:54;7.82;;;4.63;;
69417;SDS011;56610;48.872;2.400;2023-06-05T06:08:21;9.43;;;5.20;;
69417;SDS011;56610;48.872;2.400;2023-06-05T06:10:47;7.05;;;4.43;;
69417;SDS011;56610;48.872;2.400;2023-06-05T06:13:13;6.38;;;4.65;;
69417;SDS011;56610;48.872;2.400;2023-06-05T06:15:38;7.93;;;4.32;;
69417;SDS011;56610;48.872;2.400;2023-06-05T06:18:04;7.32;;;4.35;;
69417;SDS011;56610;48.872;2.400;2023-06-05T06:20:30;6.55;;;4.50;;
69417;SDS011;56610;48.872;2.400;2023-06-05T06:22:57;7.72;;;4.28;;
69417;SDS011;56610;48.872;2.400;2023-06-05T06:25:23;9.60;;;5.07;;
69417;SDS011;56610;48.872;2.400;2023-06-05T06:28:00;6.38;;;4.53;;
69417;SDS011;56610;48.872;2.400;2023-06-05T06:30:26;7.90;;;4.43;;
69417;SDS011;56610;48.872;2.400;2023-06-05T06:32:55;5.85;;;4.28;;
69417;SDS011;56610;48.872;2.400;2023-06-05T06:35:23;7.05;;;4.50;;
69417;SDS011;56610;48.872;2.400;2023-06-05T06:37:52;9.18;;;4.75;;
69417;SDS011;56610;48.872;2.400;2023-06-05T06:40:19;7.72;;;4.63;;
69417;SDS011;56610;48.872;2.400;2023-06-05T06:42:45;7.75;;;4.22;;
69417;SDS011;56610;48.872;2.400;2023-06-05T06:45:11;7.65;;;4.63;;
69417;SDS011;56610;48.872;2.400;2023-06-05T06:47:36;6.28;;;4.40;;
69417;SDS011;56610;48.872;2.400;2023-06-05T06:50:02;5.15;;;4.30;;
69417;SDS011;56610;48.872;2.400;2023-06-05T06:52:28;9.82;;;4.60;;
69417;SDS011;56610;48.872;2.400;2023-06-05T06:54:53;7.70;;;4.18;;
69417;SDS011;56610;48.872;2.400;2023-06-05T06:57:19;6.97;;;4.30;;
69417;SDS011;56610;48.872;2.400;2023-06-05T06:59:44;11.48;;;4.38;;
69417;SDS011;56610;48.872;2.400;2023-06-05T07:02:14;5.82;;;4.40;;
69417;SDS011;56610;48.872;2.400;2023-06-05T07:04:43;7.22;;;4.43;;
69417;SDS011;56610;48.872;2.400;2023-06-05T07:07:09;8.05;;;4.35;;
69417;SDS011;56610;48.872;2.400;2023-06-05T07:09:36;5.88;;;4.40;;
69417;SDS011;56610;48.872;2.400;2023-06-05T07:12:02;7.03;;;4.03;;
69417;SDS011;56610;48.872;2.400;2023-06-05T07:14:30;5.90;;;3.95;;
69417;SDS011;56610;48.872;2.400;2023-06-05T07:16:57;4.78;;;3.80;;
69417;SDS011;56610;48.872;2.400;2023-06-05T07:19:25;5.67;;;4.10;;
69417;SDS011;56610;48.872;2.400;2023-06-05T07:21:57;6.22;;;3.72;;
69417;SDS011;56610;48.872;2.400;2023-06-05T07:24:24;5.75;;;3.95;;
69417;SDS011;56610;48.872;2.400;2023-06-05T07:27:00;6.55;;;4.07;;
69417;SDS011;56610;48.872;2.400;2023-06-05T07:29:27;7.70;;;4.33;;
69417;SDS011;56610;48.872;2.400;2023-06-05T07:31:53;5.25;;;3.20;;
69417;SDS011;56610;48.872;2.400;2023-06-05T07:34:21;7.43;;;3.92;;
69417;SDS011;56610;48.872;2.400;2023-06-05T07:39:34;6.53;;;3.90;;
69417;SDS011;56610;48.872;2.400;2023-06-05T07:41:59;5.03;;;3.53;;
69417;SDS011;56610;48.872;2.400;2023-06-05T07:44:25;5.28;;;3.58;;
69417;SDS011;56610;48.872;2.400;2023-06-05T07:46:51;5.43;;;3.33;;
69417;SDS011;56610;48.872;2.400;2023-06-05T07:49:17;4.82;;;3.53;;
69417;SDS011;56610;48.872;2.400;2023-06-05T07:51:43;5.72;;;3.38;;
69417;SDS011;56610;48.872;2.400;2023-06-05T07:54:11;7.00;;;3.70;;
69417;SDS011;56610;48.872;2.400;2023-06-05T07:56:38;5.47;;;3.55;;
69417;SDS011;56610;48.872;2.400;2023-06-05T07:59:04;5.30;;;3.45;;
69417;SDS011;56610;48.872;2.400;2023-06-05T08:01:32;5.00;;;3.70;;
69417;SDS011;56610;48.872;2.400;2023-06-05T08:04:02;6.03;;;3.80;;
69417;SDS011;56610;48.872;2.400;2023-06-05T08:06:31;4.40;;;3.30;;
69417;SDS011;56610;48.872;2.400;2023-06-05T08:09:00;5.60;;;3.55;;
69417;SDS011;56610;48.872;2.400;2023-06-05T08:11:26;6.47;;;3.72;;
69417;SDS011;56610;48.872;2.400;2023-06-05T08:13:53;3.33;;;2.83;;
69417;SDS011;56610;48.872;2.400;2023-06-05T08:16:19;8.05;;;3.15;;
69417;SDS011;56610;48.872;2.400;2023-06-05T08:18:44;5.75;;;3.45;;
69417;SDS011;56610;48.872;2.400;2023-06-05T08:21:11;7.60;;;3.00;;
69417;SDS011;56610;48.872;2.400;2023-06-05T08:23:37;6.22;;;3.22;;
69417;SDS011;56610;48.872;2.400;2023-06-05T08:26:02;4.72;;;3.30;;
69417;SDS011;56610;48.872;2.400;2023-06-05T08:28:35;3.38;;;2.72;;
69417;SDS011;56610;48.872;2.400;2023-06-05T08:31:05;3.67;;;3.00;;
69417;SDS011;56610;48.872;2.400;2023-06-05T08:33:35;7.32;;;3.38;;
69417;SDS011;56610;48.872;2.400;2023-06-05T08:36:02;4.50;;;3.05;;
69417;SDS011;56610;48.872;2.400;2023-06-05T08:38:32;5.80;;;3.20;;
69417;SDS011;56610;48.872;2.400;2023-06-05T08:41:05;6.13;;;3.05;;
69417;SDS011;56610;48.872;2.400;2023-06-05T08:43:35;4.75;;;2.70;;
69417;SDS011;56610;48.872;2.400;2023-06-05T08:46:02;6.40;;;3.40;;
69417;SDS011;56610;48.872;2.400;2023-06-05T08:48:30;5.57;;;3.10;;
69417;SDS011;56610;48.872;2.400;2023-06-05T08:50:59;7.03;;;3.42;;
69417;SDS011;56610;48.872;2.400;2023-06-05T08:53:25;4.47;;;2.72;;
69417;SDS011;56610;48.872;2.400;2023-06-05T08:55:58;5.38;;;3.10;;
69417;SDS011;56610;48.872;2.400;2023-06-05T08:58:23;4.47;;;3.10;;
69417;SDS011;56610;48.872;2.400;2023-06-05T09:00:49;3.65;;;2.95;;
69417;SDS011;56610;48.872;2.400;2023-06-05T09:03:16;8.23;;;3.20;;
69417;SDS011;56610;48.872;2.400;2023-06-05T09:05:45;4.93;;;3.05;;
69417;SDS011;56610;48.872;2.400;2023-06-05T09:08:12;2.83;;;2.53;;
69417;SDS011;56610;48.872;2.400;2023-06-05T09:10:38;3.65;;;3.00;;
69417;SDS011;56610;48.872;2.400;2023-06-05T09:13:04;3.78;;;2.50;;
69417;SDS011;56610;48.872;2.400;2023-06-05T09:15:31;4.38;;;2.85;;
69417;SDS011;56610;48.872;2.400;2023-06-05T09:18:02;5.72;;;2.40;;
69417;SDS011;56610;48.872;2.400;2023-06-05T09:20:33;4.60;;;3.15;;
69417;SDS011;56610;48.872;2.400;2023-06-05T09:23:02;6.22;;;3.13;;
69417;SDS011;56610;48.872;2.400;2023-06-05T09:25:46;4.47;;;2.63;;
69417;SDS011;56610;48.872;2.400;2023-06-05T09:28:15;4.40;;;2.72;;
69417;SDS011;56610;48.872;2.400;2023-06-05T09:30:54;5.25;;;2.72;;
69417;SDS011;56610;48.872;2.400;2023-06-05T09:33:31;4.57;;;2.90;;
69417;SDS011;56610;48.872;2.400;2023-06-05T09:36:11;6.63;;;2.63;;
69417;SDS011;56610;48.872;2.400;2023-06-05T09:38:38;5.32;;;2.95;;
69417;SDS011;56610;48.872;2.400;2023-06-05T09:43:32;4.90;;;3.10;;
69417;SDS011;56610;48.872;2.400;2023-06-05T09:45:58;6.18;;;2.78;;
69417;SDS011;56610;48.872;2.400;2023-06-05T09:48:30;5.30;;;2.70;;
69417;SDS011;56610;48.872;2.400;2023-06-05T09:51:06;3.72;;;2.63;;
69417;SDS011;56610;48.872;2.400;2023-06-05T09:53:49;4.75;;;2.70;;
69417;SDS011;56610;48.872;2.400;2023-06-05T09:56:22;4.10;;;2.78;;
69417;SDS011;56610;48.872;2.400;2023-06-05T09:58:48;3.88;;;2.67;;
69417;SDS011;56610;48.872;2.400;2023-06-05T10:01:16;4.88;;;2.60;;
69417;SDS011;56610;48.872;2.400;2023-06-05T10:03:55;3.97;;;2.17;;
69417;SDS011;56610;48.872;2.400;2023-06-05T10:06:23;6.22;;;2.75;;
69417;SDS011;56610;48.872;2.400;2023-06-05T10:08:51;4.03;;;2.75;;
69417;SDS011;56610;48.872;2.400;2023-06-05T10:11:21;4.68;;;2.50;;
69417;SDS011;56610;48.872;2.400;2023-06-05T10:13:48;3.67;;;2.00;;
69417;SDS011;56610;48.872;2.400;2023-06-05T10:16:16;4.13;;;2.08;;
69417;SDS011;56610;48.872;2.400;2023-06-05T10:18:44;3.45;;;2.28;;
69417;SDS011;56610;48.872;2.400;2023-06-05T10:21:12;3.45;;;1.75;;
69417;SDS011;56610;48.872;2.400;2023-06-05T10:23:40;5.68;;;2.10;;
69417;SDS011;56610;48.872;2.400;2023-06-05T10:26:09;5.10;;;2.13;;
69417;SDS011;56610;48.872;2.400;2023-06-05T10:28:59;3.70;;;2.08;;
69417;SDS011;56610;48.872;2.400;2023-06-05T10:31:52;3.53;;;2.05;;
69417;SDS011;56610;48.872;2.400;2023-06-05T10:37:10;4.47;;;2.03;;
69417;SDS011;56610;48.872;2.400;2023-06-05T10:39:53;2.90;;;1.80;;
69417;SDS011;56610;48.872;2.400;2023-06-05T10:42:26;4.57;;;2.08;;
69417;SDS011;56610;48.872;2.400;2023-06-05T10:44:52;4.60;;;1.90;;
69417;SDS011;56610;48.872;2.400;2023-06-05T10:52:44;2.63;;;1.92;;
69417;SDS011;56610;48.872;2.400;2023-06-05T10:55:11;4.25;;;2.08;;
69417;SDS011;56610;48.872;2.400;2023-06-05T10:58:19;3.47;;;2.00;;
69417;SDS011;56610;48.872;2.400;2023-06-05T11:00:26;2.50;;;2.00;;
69417;SDS011;56610;48.872;2.400;2023-06-05T11:02:52;3.33;;;2.10;;
69417;SDS011;56610;48.872;2.400;2023-06-05T11:05:18;4.95;;;2.17;;
69417;SDS011;56610;48.872;2.400;2023-06-05T11:07:44;4.18;;;2.30;;
69417;SDS011;56610;48.872;2.400;2023-06-05T11:10:14;3.58;;;1.98;;
69417;SDS011;56610;48.872;2.400;2023-06-05T11:15:34;3.58;;;2.13;;
69417;SDS011;56610;48.872;2.400;2023-06-05T11:20:56;2.78;;;2.05;;
69417;SDS011;56610;48.872;2.400;2023-06-05T11:23:22;3.17;;;1.95;;
69417;SDS011;56610;48.872;2.400;2023-06-05T11:25:52;2.33;;;1.92;;
69417;SDS011;56610;48.872;2.400;2023-06-05T11:31:04;3.10;;;1.77;;
69417;SDS011;56610;48.872;2.400;2023-06-05T11:33:30;3.05;;;1.83;;
69417;SDS011;56610;48.872;2.400;2023-06-05T11:35:59;2.53;;;2.00;;
69417;SDS011;56610;48.872;2.400;2023-06-05T11:38:30;4.38;;;2.15;;
69417;SDS011;56610;48.872;2.400;2023-06-05T11:40:56;4.63;;;1.90;;
69417;SDS011;56610;48.872;2.400;2023-06-05T11:43:22;2.25;;;1.60;;
69417;SDS011;56610;48.872;2.400;2023-06-05T11:45:55;2.72;;;1.95;;
69417;SDS011;56610;48.872;2.400;2023-06-05T11:48:21;4.00;;;1.70;;
69417;SDS011;56610;48.872;2.400;2023-06-05T11:53:23;3.40;;;2.20;;
69417;SDS011;56610;48.872;2.400;2023-06-05T11:55:50;3.03;;;1.88;;
69417;SDS011;56610;48.872;2.400;2023-06-05T11:58:29;1.70;;;1.60;;
69417;SDS011;56610;48.872;2.400;2023-06-05T12:01:06;3.38;;;1.80;;
69417;SDS011;56610;48.872;2.400;2023-06-05T12:03:49;2.70;;;1.95;;
69417;SDS011;56610;48.872;2.400;2023-06-05T12:06:27;2.08;;;1.63;;
69417;SDS011;56610;48.872;2.400;2023-06-05T12:08:53;3.67;;;2.10;;
69417;SDS011;56610;48.872;2.400;2023-06-05T12:11:31;2.70;;;2.03;;
69417;SDS011;56610;48.872;2.400;2023-06-05T12:13:56;2.00;;;1.67;;
69417;SDS011;56610;48.872;2.400;2023-06-05T12:16:35;1.90;;;1.67;;
69417;SDS011;56610;48.872;2.400;2023-06-05T12:19:03;3.15;;;1.50;;
69417;SDS011;56610;48.872;2.400;2023-06-05T12:21:37;3.10;;;1.65;;
69417;SDS011;56610;48.872;2.400;2023-06-05T12:24:03;1.88;;;1.50;;
69417;SDS011;56610;48.872;2.400;2023-06-05T12:29:24;2.42;;;1.90;;
69417;SDS011;56610;48.872;2.400;2023-06-05T12:31:53;2.83;;;2.00;;
69417;SDS011;56610;48.872;2.400;2023-06-05T12:37:22;1.85;;;1.50;;
69417;SDS011;56610;48.872;2.400;2023-06-05T12:39:54;1.73;;;1.45;;
69417;SDS011;56610;48.872;2.400;2023-06-05T12:42:24;1.48;;;1.35;;
69417;SDS011;56610;48.872;2.400;2023-06-05T12:44:49;2.53;;;1.75;;
69417;SDS011;56610;48.872;2.400;2023-06-05T12:47:15;2.42;;;1.50;;
69417;SDS011;56610;48.872;2.400;2023-06-05T12:49:41;5.95;;;1.65;;
69417;SDS011;56610;48.872;2.400;2023-06-05T12:52:07;3.85;;;1.70;;
69417;SDS011;56610;48.872;2.400;2023-06-05T12:54:36;3.20;;;1.80;;
69417;SDS011;56610;48.872;2.400;2023-06-05T12:57:02;3.35;;;1.70;;
69417;SDS011;56610;48.872;2.400;2023-06-05T12:59:30;1.77;;;1.60;;
69417;SDS011;56610;48.872;2.400;2023-06-05T13:01:56;3.30;;;1.70;;
69417;SDS011;56610;48.872;2.400;2023-06-05T13:04:21;3.88;;;1.52;;
69417;SDS011;56610;48.872;2.400;2023-06-05T13:06:47;5.43;;;1.70;;
69417;SDS011;56610;48.872;2.400;2023-06-05T13:09:13;5.03;;;1.65;;
69417;SDS011;56610;48.872;2.400;2023-06-05T13:11:38;1.73;;;1.60;;
69417;SDS011;56610;48.872;2.400;2023-06-05T13:14:04;2.72;;;1.50;;
69417;SDS011;56610;48.872;2.400;2023-06-05T13:16:30;3.00;;;1.60;;
69417;SDS011;56610;48.872;2.400;2023-06-05T13:18:56;1.70;;;1.60;;
69417;SDS011;56610;48.872;2.400;2023-06-05T13:21:21;1.77;;;1.50;;
69417;SDS011;56610;48.872;2.400;2023-06-05T13:23:47;2.83;;;1.98;;
69417;SDS011;56610;48.872;2.400;2023-06-05T13:26:13;1.98;;;1.80;;
69417;SDS011;56610;48.872;2.400;2023-06-05T13:28:39;2.40;;;1.70;;
69417;SDS011;56610;48.872;2.400;2023-06-05T13:31:04;1.95;;;1.70;;
69417;SDS011;56610;48.872;2.400;2023-06-05T13:33:31;1.98;;;1.77;;
69417;SDS011;56610;48.872;2.400;2023-06-05T13:35:58;5.20;;;1.70;;
69417;SDS011;56610;48.872;2.400;2023-06-05T13:38:24;3.80;;;1.58;;
69417;SDS011;56610;48.872;2.400;2023-06-05T13:40:49;1.92;;;1.52;;
69417;SDS011;56610;48.872;2.400;2023-06-05T13:45:42;1.60;;;1.42;;
69417;SDS011;56610;48.872;2.400;2023-06-05T13:48:08;3.05;;;1.80;;
69417;SDS011;56610;48.872;2.400;2023-06-05T13:50:34;2.15;;;1.70;;
69417;SDS011;56610;48.872;2.400;2023-06-05T13:53:00;3.47;;;1.90;;
69417;SDS011;56610;48.872;2.400;2023-06-05T13:55:25;3.45;;;1.77;;
69417;SDS011;56610;48.872;2.400;2023-06-05T13:57:51;2.30;;;1.65;;
69417;SDS011;56610;48.872;2.400;2023-06-05T14:00:17;2.92;;;1.58;;
69417;SDS011;56610;48.872;2.400;2023-06-05T14:02:43;4.32;;;1.45;;
69417;SDS011;56610;48.872;2.400;2023-06-05T14:05:08;1.77;;;1.45;;
69417;SDS011;56610;48.872;2.400;2023-06-05T14:07:36;2.25;;;1.85;;
69417;SDS011;56610;48.872;2.400;2023-06-05T14:10:02;2.88;;;1.30;;
69417;SDS011;56610;48.872;2.400;2023-06-05T14:12:29;4.68;;;1.58;;
69417;SDS011;56610;48.872;2.400;2023-06-05T14:14:54;2.30;;;1.60;;
69417;SDS011;56610;48.872;2.400;2023-06-05T14:17:20;2.65;;;1.80;;
69417;SDS011;56610;48.872;2.400;2023-06-05T14:19:46;1.95;;;1.75;;
69417;SDS011;56610;48.872;2.400;2023-06-05T14:22:11;1.92;;;1.58;;
69417;SDS011;56610;48.872;2.400;2023-06-05T14:24:37;1.70;;;1.60;;
69417;SDS011;56610;48.872;2.400;2023-06-05T14:27:04;1.92;;;1.70;;
69417;SDS011;56610;48.872;2.400;2023-06-05T14:29:30;3.10;;;1.50;;
69417;SDS011;56610;48.872;2.400;2023-06-05T14:31:56;1.40;;;1.30;;
69417;SDS011;56610;48.872;2.400;2023-06-05T14:34:21;1.90;;;1.70;;
69417;SDS011;56610;48.872;2.400;2023-06-05T14:36:47;2.47;;;1.60;;
69417;SDS011;56610;48.872;2.400;2023-06-05T14:39:16;2.10;;;1.75;;
69417;SDS011;56610;48.872;2.400;2023-06-05T14:41:43;2.03;;;1.58;;
69417;SDS011;56610;48.872;2.400;2023-06-05T14:44:08;5.78;;;1.58;;
69417;SDS011;56610;48.872;2.400;2023-06-05T14:46:34;3.85;;;1.70;;
69417;SDS011;56610;48.872;2.400;2023-06-05T14:48:59;2.47;;;1.80;;
69417;SDS011;56610;48.872;2.400;2023-06-05T14:51:25;2.53;;;1.73;;
69417;SDS011;56610;48.872;2.400;2023-06-05T14:53:50;2.60;;;1.95;;
69417;SDS011;56610;48.872;2.400;2023-06-05T14:56:16;2.25;;;1.63;;
69417;SDS011;56610;48.872;2.400;2023-06-05T14:58:42;4.10;;;1.70;;
69417;SDS011;56610;48.872;2.400;2023-06-05T15:01:07;3.67;;;1.88;;
69417;SDS011;56610;48.872;2.400;2023-06-05T15:03:33;2.47;;;1.67;;
69417;SDS011;56610;48.872;2.400;2023-06-05T15:05:58;1.77;;;1.42;;
69417;SDS011;56610;48.872;2.400;2023-06-05T15:08:24;1.90;;;1.70;;
69417;SDS011;56610;48.872;2.400;2023-06-05T15:10:50;2.00;;;1.65;;
69417;SDS011;56610;48.872;2.400;2023-06-05T15:13:15;2.15;;;1.70;;
69417;SDS011;56610;48.872;2.400;2023-06-05T15:15:41;2.33;;;1.55;;
69417;SDS011;56610;48.872;2.400;2023-06-05T15:18:07;2.03;;;1.63;;
69417;SDS011;56610;48.872;2.400;2023-06-05T15:20:33;2.25;;;1.70;;
69417;SDS011;56610;48.872;2.400;2023-06-05T15:22:58;2.03;;;1.70;;
69417;SDS011;56610;48.872;2.400;2023-06-05T15:25:24;3.00;;;1.67;;
69417;SDS011;56610;48.872;2.400;2023-06-05T15:27:51;1.60;;;1.50;;
69417;SDS011;56610;48.872;2.400;2023-06-05T15:30:17;1.60;;;1.50;;
69417;SDS011;56610;48.872;2.400;2023-06-05T15:32:42;4.25;;;1.90;;